createdAt,value
2022-12-25T00:00:34.545Z,98671.00
2022-12-25T00:03:05.210Z,98674.03
2022-12-25T00:05:33.964Z,98677.38
2022-12-25T00:08:02.865Z,98678.47
2022-12-25T00:10:31.442Z,98672.84
2022-12-25T00:12:59.939Z,98675.38
2022-12-25T00:15:28.713Z,98672.41
2022-12-25T00:17:57.350Z,98687.94
2022-12-25T00:20:27.210Z,98670.25
2022-12-25T00:22:55.465Z,98668.66
2022-12-25T00:25:23.909Z,98672.25
2022-12-25T00:27:52.603Z,98671.25
2022-12-25T00:30:21.118Z,98671.91
2022-12-25T00:32:49.638Z,98670.84
2022-12-25T00:35:18.403Z,98665.28
2022-12-25T00:37:48.197Z,98679.97
2022-12-25T00:40:16.379Z,98675.78
2022-12-25T00:42:44.727Z,98683.56
2022-12-25T00:45:15.840Z,98682.75
2022-12-25T00:47:44.167Z,98679.59
2022-12-25T00:50:12.917Z,98686.84
2022-12-25T00:52:41.588Z,98682.66
2022-12-25T00:55:12.570Z,98680.84
2022-12-25T00:57:41.611Z,98672.78
2022-12-25T01:00:11.541Z,98681.75
2022-12-25T01:02:40.174Z,98678.28
2022-12-25T01:05:09.103Z,98671.75
2022-12-25T01:07:37.393Z,98668.72
2022-12-25T01:10:23.254Z,98672.66
2022-12-25T01:12:53.191Z,98671.00
2022-12-25T01:15:22.020Z,98674.72
2022-12-25T01:17:50.343Z,98664.59
2022-12-25T01:20:19.399Z,98655.72
2022-12-25T01:22:47.904Z,98662.28
2022-12-25T01:25:16.057Z,98651.69
2022-12-25T01:27:44.157Z,98645.66
2022-12-25T01:30:14.320Z,98648.72
2022-12-25T01:32:42.454Z,98650.59
2022-12-25T01:35:12.182Z,98650.13
2022-12-25T01:37:40.382Z,98646.81
2022-12-25T01:40:10.132Z,98649.69
2022-12-25T01:42:38.699Z,98643.84
2022-12-25T01:45:27.919Z,98640.91
2022-12-25T01:47:57.976Z,98650.00
2022-12-25T01:50:26.567Z,98660.75
2022-12-25T01:52:55.531Z,98649.72
2022-12-25T01:55:24.252Z,98641.22
2022-12-25T01:57:52.711Z,98641.22
2022-12-25T02:00:21.928Z,98648.19
2022-12-25T02:02:50.578Z,98646.50
2022-12-25T02:05:22.637Z,98646.91
2022-12-25T02:07:51.650Z,98644.41
2022-12-25T02:10:20.334Z,98643.94
2022-12-25T02:12:49.436Z,98643.66
2022-12-25T02:15:19.235Z,98658.38
2022-12-25T02:17:51.837Z,98645.13
2022-12-25T02:20:38.154Z,98647.75
2022-12-25T02:23:16.384Z,98649.59
2022-12-25T02:25:51.589Z,98661.19
2022-12-25T02:28:22.795Z,98656.16
2022-12-25T02:30:55.645Z,98658.03
2022-12-25T02:33:46.089Z,98659.41
2022-12-25T02:36:17.343Z,98661.91
2022-12-25T02:39:05.015Z,98672.66
2022-12-25T02:41:36.605Z,98673.31
2022-12-25T02:44:26.512Z,98671.81
2022-12-25T02:47:12.453Z,98687.94
2022-12-25T02:49:59.229Z,98681.75
2022-12-25T02:52:46.585Z,98701.91
2022-12-25T02:55:34.267Z,98697.19
2022-12-25T02:58:23.255Z,98700.16
2022-12-25T03:01:12.612Z,98688.38
2022-12-25T03:03:59.731Z,98688.03
2022-12-25T03:06:46.011Z,98688.03
2022-12-25T03:09:35.360Z,98687.66
2022-12-25T03:12:10.756Z,98684.38
2022-12-25T03:14:57.330Z,98673.19
2022-12-25T03:17:27.025Z,98668.66
2022-12-25T03:20:12.415Z,98667.81
2022-12-25T03:23:00.677Z,98669.69
2022-12-25T03:25:47.215Z,98651.72
2022-12-25T03:28:15.723Z,98649.69
2022-12-25T03:31:03.306Z,98652.19
2022-12-25T03:33:45.178Z,98655.69
2022-12-25T03:36:18.063Z,98649.97
2022-12-25T03:39:11.091Z,98645.59
2022-12-25T03:41:59.918Z,98649.31
2022-12-25T03:45:02.040Z,98651.34
2022-12-25T03:47:49.939Z,98646.34
2022-12-25T03:50:38.540Z,98642.63
2022-12-25T03:53:26.115Z,98645.91
2022-12-25T03:56:13.012Z,98632.28
2022-12-25T03:59:08.621Z,98631.09
2022-12-25T04:01:54.587Z,98621.63
2022-12-25T04:04:40.718Z,98622.94
2022-12-25T04:07:28.010Z,98623.38
2022-12-25T04:10:10.176Z,98621.34
2022-12-25T04:13:07.164Z,98617.22
2022-12-25T04:15:52.854Z,98612.25
2022-12-25T04:18:38.789Z,98616.22
2022-12-25T04:21:24.454Z,98611.22
2022-12-25T04:24:11.626Z,98614.28
2022-12-25T04:26:57.470Z,98606.03
2022-12-25T04:29:43.173Z,98604.19
2022-12-25T04:32:28.983Z,98610.13
2022-12-25T04:35:14.611Z,98611.81
2022-12-25T04:37:42.977Z,98606.25
2022-12-25T04:40:13.366Z,98610.59
2022-12-25T04:42:41.751Z,98621.69
2022-12-25T04:45:10.396Z,98620.09
2022-12-25T04:47:38.739Z,98618.47
2022-12-25T04:50:08.307Z,98621.34
2022-12-25T04:52:36.634Z,98613.09
2022-12-25T04:55:05.292Z,98605.47
2022-12-25T04:57:35.205Z,98605.84
2022-12-25T05:00:03.695Z,98613.53
2022-12-25T05:02:32.266Z,98622.59
2022-12-25T05:05:00.538Z,98610.84
2022-12-25T05:07:28.868Z,98613.53
2022-12-25T05:09:57.487Z,98623.50
2022-12-25T05:12:25.685Z,98617.38
2022-12-25T05:14:55.890Z,98613.22
2022-12-25T05:17:24.501Z,98618.41
2022-12-25T05:19:54.135Z,98616.72
2022-12-25T05:22:22.691Z,98610.72
2022-12-25T05:24:50.908Z,98608.03
2022-12-25T05:27:19.188Z,98614.81
2022-12-25T05:29:47.421Z,98607.16
2022-12-25T05:32:17.234Z,98595.56
2022-12-25T05:34:45.391Z,98594.53
2022-12-25T05:37:13.862Z,98598.44
2022-12-25T05:39:42.147Z,98585.38
2022-12-25T05:42:10.469Z,98590.31
2022-12-25T05:44:38.628Z,98600.88
2022-12-25T05:47:07.066Z,98597.34
2022-12-25T05:49:36.925Z,98602.34
2022-12-25T05:52:05.242Z,98610.03
2022-12-25T05:54:33.526Z,98608.94
2022-12-25T05:57:01.788Z,98623.38
2022-12-25T05:59:30.886Z,98620.88
2022-12-25T06:01:59.484Z,98619.97
2022-12-25T06:04:27.909Z,98627.19
2022-12-25T06:06:57.498Z,98625.53
2022-12-25T06:09:25.959Z,98621.53
2022-12-25T06:11:54.542Z,98619.44
2022-12-25T06:14:22.765Z,98611.75
2022-12-25T06:16:52.744Z,98615.66
2022-12-25T06:19:21.171Z,98616.03
2022-12-25T06:21:49.330Z,98614.34
2022-12-25T06:24:21.429Z,98623.03
2022-12-25T06:26:50.193Z,98618.16
2022-12-25T06:29:18.811Z,98616.75
2022-12-25T06:31:47.224Z,98617.19
2022-12-25T06:34:16.908Z,98617.47
2022-12-25T06:36:45.449Z,98626.16
2022-12-25T06:39:13.826Z,98622.44
2022-12-25T06:41:43.462Z,98628.00
2022-12-25T06:44:11.745Z,98627.63
2022-12-25T06:46:40.158Z,98631.81
2022-12-25T06:49:08.499Z,98627.06
2022-12-25T06:51:36.802Z,98621.34
2022-12-25T06:54:05.159Z,98605.47
2022-12-25T06:56:33.873Z,98603.88
2022-12-25T06:59:04.853Z,98606.19
2022-12-25T07:01:35.334Z,98612.00
2022-12-25T07:04:06.015Z,98612.00
2022-12-25T07:06:34.758Z,98609.91
2022-12-25T07:09:02.858Z,98612.41
2022-12-25T07:11:31.302Z,98608.22
2022-12-25T07:13:59.659Z,98607.03
2022-12-25T07:16:29.571Z,98608.22
2022-12-25T07:19:00.225Z,98601.66
2022-12-25T07:21:28.472Z,98610.16
2022-12-25T07:23:57.087Z,98605.44
2022-12-25T07:26:25.454Z,98606.25
2022-12-25T07:28:53.827Z,98611.81
2022-12-25T07:31:21.996Z,98620.31
2022-12-25T07:33:53.849Z,98622.38
2022-12-25T07:36:22.163Z,98634.00
2022-12-25T07:38:51.121Z,98635.69
2022-12-25T07:41:19.490Z,98639.47
2022-12-25T07:43:50.560Z,98643.78
2022-12-25T07:46:19.034Z,98646.94
2022-12-25T07:48:47.307Z,98637.41
2022-12-25T07:51:17.513Z,98632.50
2022-12-25T07:53:45.720Z,98627.56
2022-12-25T07:56:14.526Z,98623.47
2022-12-25T07:58:42.796Z,98632.19
2022-12-25T08:01:13.158Z,98631.97
2022-12-25T08:03:41.790Z,98660.75
2022-12-25T08:06:11.129Z,98669.09
2022-12-25T08:08:42.206Z,98659.16
2022-12-25T08:11:10.717Z,98657.06
2022-12-25T08:13:39.223Z,98652.91
2022-12-25T08:16:09.159Z,98654.09
2022-12-25T08:18:37.982Z,98654.88
2022-12-25T08:21:07.466Z,98649.00
2022-12-25T08:23:36.154Z,98644.38
2022-12-25T08:26:06.774Z,98641.44
2022-12-25T08:28:35.679Z,98650.00
2022-12-25T08:31:15.930Z,98653.69
2022-12-25T08:33:44.479Z,98652.78
2022-12-25T08:36:13.840Z,98655.19
2022-12-25T08:38:42.227Z,98672.06
2022-12-25T08:41:12.571Z,98673.75
2022-12-25T08:43:41.051Z,98675.53
2022-12-25T08:46:09.865Z,98673.84
2022-12-25T08:48:38.304Z,98663.69
2022-12-25T08:51:09.670Z,98674.59
2022-12-25T08:53:38.574Z,98673.94
2022-12-25T08:56:07.418Z,98679.69
2022-12-25T08:58:37.748Z,98689.22
2022-12-25T09:01:06.474Z,98687.56
2022-12-25T09:03:34.964Z,98689.66
2022-12-25T09:06:04.294Z,98685.53
2022-12-25T09:08:32.572Z,98705.78
2022-12-25T09:11:03.136Z,98695.88
2022-12-25T09:13:31.443Z,98704.13
2022-12-25T09:16:00.935Z,98702.47
2022-12-25T09:18:29.005Z,98697.91
2022-12-25T09:21:00.776Z,98699.09
2022-12-25T09:23:29.395Z,98692.72
2022-12-25T09:25:59.577Z,98691.06
2022-12-25T09:28:27.895Z,98694.41
2022-12-25T09:30:56.593Z,98692.91
2022-12-25T09:33:26.493Z,98704.47
2022-12-25T09:35:55.505Z,98704.84
2022-12-25T09:38:23.872Z,98702.84
2022-12-25T09:40:59.212Z,98712.19
2022-12-25T09:43:28.891Z,98711.53
2022-12-25T09:45:58.504Z,98706.34
2022-12-25T09:48:29.228Z,98707.16
2022-12-25T09:51:00.893Z,98705.03
2022-12-25T09:53:32.730Z,98705.53
2022-12-25T09:56:03.396Z,98708.19
2022-12-25T09:58:31.727Z,98710.31
2022-12-25T10:01:02.921Z,98720.78
2022-12-25T10:03:39.249Z,98714.66
2022-12-25T10:06:19.307Z,98705.69
2022-12-25T10:09:03.660Z,98713.06
2022-12-25T10:11:39.701Z,98708.47
2022-12-25T10:14:16.075Z,98702.78
2022-12-25T10:16:48.111Z,98697.50
2022-12-25T10:19:26.266Z,98692.34
2022-12-25T10:21:58.196Z,98697.00
2022-12-25T10:24:34.613Z,98699.56
2022-12-25T10:27:05.078Z,98704.44
2022-12-25T10:29:34.865Z,98703.19
2022-12-25T10:32:02.957Z,98694.56
2022-12-25T10:34:32.675Z,98695.81
2022-12-25T10:37:02.211Z,98692.03
2022-12-25T10:39:30.347Z,98696.59
2022-12-25T10:42:04.636Z,98698.88
2022-12-25T10:44:33.414Z,98707.44
2022-12-25T10:47:02.109Z,98719.63
2022-12-25T10:49:31.534Z,98714.06
2022-12-25T10:52:02.042Z,98715.81
2022-12-25T10:54:31.441Z,98703.81
2022-12-25T10:57:01.034Z,98705.25
2022-12-25T10:59:29.992Z,98694.28
2022-12-25T11:02:05.313Z,98701.38
2022-12-25T11:04:36.747Z,98698.91
2022-12-25T11:07:07.933Z,98704.28
2022-12-25T11:09:36.571Z,98704.03
2022-12-25T11:12:05.117Z,98717.50
2022-12-25T11:14:33.177Z,98709.06
2022-12-25T11:17:08.672Z,98706.13
2022-12-25T11:19:36.841Z,98710.38
2022-12-25T11:22:18.064Z,98698.41
2022-12-25T11:24:46.536Z,98691.75
2022-12-25T11:27:22.112Z,98683.09
2022-12-25T11:29:51.981Z,98677.63
2022-12-25T11:32:24.008Z,98653.66
2022-12-25T11:34:52.248Z,98634.84
2022-12-25T11:37:25.032Z,98630.50
2022-12-25T11:39:53.211Z,98619.28
2022-12-25T11:42:24.059Z,98626.72
2022-12-25T11:44:54.970Z,98613.25
2022-12-25T11:47:25.731Z,98614.88
2022-12-25T11:50:00.551Z,98615.97
2022-12-25T11:52:34.537Z,98608.50
2022-12-25T11:55:05.062Z,98609.00
2022-12-25T11:57:34.398Z,98612.59
2022-12-25T12:00:06.839Z,98620.41
2022-12-25T12:02:39.527Z,98607.50
2022-12-25T12:05:16.349Z,98608.34
2022-12-25T12:07:52.353Z,98602.09
2022-12-25T12:10:20.966Z,98602.03
2022-12-25T12:12:54.354Z,98603.94
2022-12-25T12:15:27.678Z,98606.13
2022-12-25T12:17:56.125Z,98609.00
2022-12-25T12:20:31.527Z,98608.78
2022-12-25T12:23:01.783Z,98607.59
2022-12-25T12:25:31.024Z,98612.47
2022-12-25T12:28:04.768Z,98612.00
2022-12-25T12:30:35.855Z,98618.88
2022-12-25T12:33:06.523Z,98616.78
2022-12-25T12:35:39.766Z,98614.13
2022-12-25T12:38:13.507Z,98612.69
2022-12-25T12:40:44.294Z,98612.31
2022-12-25T12:43:27.353Z,98615.66
2022-12-25T12:45:58.430Z,98608.06
2022-12-25T12:48:29.564Z,98605.81
2022-12-25T12:51:05.185Z,98609.97
2022-12-25T12:53:38.213Z,98608.03
2022-12-25T12:56:14.012Z,98598.41
2022-12-25T12:58:45.732Z,98591.06
2022-12-25T13:01:20.806Z,98591.47
2022-12-25T13:04:05.327Z,98596.63
2022-12-25T13:06:42.703Z,98595.41
2022-12-25T13:09:19.814Z,98587.59
2022-12-25T13:11:48.942Z,98585.66
2022-12-25T13:14:18.582Z,98589.84
2022-12-25T13:16:47.665Z,98586.66
2022-12-25T13:19:18.019Z,98580.16
2022-12-25T13:21:53.526Z,98573.16
2022-12-25T13:24:23.972Z,98570.66
2022-12-25T13:26:52.160Z,98573.38
2022-12-25T13:29:23.606Z,98567.75
2022-12-25T13:31:51.772Z,98560.09
2022-12-25T13:34:23.423Z,98572.34
2022-12-25T13:36:52.906Z,98563.66
2022-12-25T13:39:26.842Z,98562.81
2022-12-25T13:42:10.999Z,98571.19
2022-12-25T13:44:44.504Z,98570.53
2022-12-25T13:47:20.467Z,98570.31
2022-12-25T13:49:50.792Z,98564.13
2022-12-25T13:52:22.224Z,98558.72
2022-12-25T13:54:59.693Z,98555.66
2022-12-25T13:57:34.755Z,98556.09
2022-12-25T14:00:03.822Z,98557.91
2022-12-25T14:02:36.194Z,98560.19
2022-12-25T14:05:05.429Z,98566.63
2022-12-25T14:07:34.862Z,98558.31
2022-12-25T14:10:04.754Z,98569.75
2022-12-25T14:12:33.881Z,98562.09
2022-12-25T14:15:02.362Z,98567.94
2022-12-25T14:17:30.477Z,98566.69
2022-12-25T14:20:07.954Z,98567.94
2022-12-25T14:22:38.697Z,98569.97
2022-12-25T14:25:16.324Z,98561.88
2022-12-25T14:27:48.875Z,98561.22
2022-12-25T14:30:17.436Z,98563.75
2022-12-25T14:32:46.557Z,98557.91
2022-12-25T14:35:19.812Z,98562.53
2022-12-25T14:37:52.630Z,98547.66
2022-12-25T14:40:26.494Z,98543.72
2022-12-25T14:42:58.257Z,98546.41
2022-12-25T14:45:28.003Z,98545.22
2022-12-25T14:47:56.809Z,98546.44
2022-12-25T14:50:30.057Z,98557.22
2022-12-25T14:53:01.007Z,98547.09
2022-12-25T14:55:32.398Z,98551.88
2022-12-25T14:58:04.612Z,98546.28
2022-12-25T15:00:35.654Z,98538.81
2022-12-25T15:03:05.914Z,98546.09
2022-12-25T15:05:36.560Z,98536.94
2022-12-25T15:08:20.782Z,98544.88
2022-12-25T15:11:01.143Z,98540.94
2022-12-25T15:13:31.201Z,98534.06
2022-12-25T15:16:03.599Z,98533.69
2022-12-25T15:18:33.285Z,98535.53
2022-12-25T15:21:01.791Z,98533.91
2022-12-25T15:23:30.240Z,98534.50
2022-12-25T15:26:00.465Z,98537.84
2022-12-25T15:28:28.729Z,98540.53
2022-12-25T15:30:57.362Z,98537.84
2022-12-25T15:33:25.425Z,98542.00
2022-12-25T15:35:53.484Z,98548.22
2022-12-25T15:38:21.847Z,98546.97
2022-12-25T15:40:50.029Z,98552.19
2022-12-25T15:43:40.436Z,98556.13
2022-12-25T15:46:09.382Z,98552.38
2022-12-25T15:48:37.527Z,98560.69
2022-12-25T15:51:05.824Z,98568.16
2022-12-25T15:53:33.945Z,98561.94
2022-12-25T15:56:03.120Z,98575.81
2022-12-25T15:58:32.900Z,98579.16
2022-12-25T16:01:02.996Z,98582.25
2022-12-25T16:03:31.206Z,98584.56
2022-12-25T16:05:59.381Z,98584.13
2022-12-25T16:08:27.753Z,98569.59
2022-12-25T16:10:56.120Z,98573.56
2022-12-25T16:13:24.280Z,98571.88
2022-12-25T16:15:54.011Z,98585.19
2022-12-25T16:18:24.033Z,98581.00
2022-12-25T16:20:52.415Z,98580.78
2022-12-25T16:23:20.764Z,98579.34
2022-12-25T16:25:49.392Z,98583.28
2022-12-25T16:28:17.593Z,98579.75
2022-12-25T16:30:46.138Z,98587.19
2022-12-25T16:33:16.096Z,98583.03
2022-12-25T16:35:44.430Z,98584.09
2022-12-25T16:38:12.889Z,98575.16
2022-12-25T16:40:40.962Z,98578.03
2022-12-25T16:43:09.246Z,98573.44
2022-12-25T16:45:39.239Z,98579.25
2022-12-25T16:48:08.741Z,98581.31
2022-12-25T16:50:40.867Z,98575.50
2022-12-25T16:53:09.105Z,98585.88
2022-12-25T16:55:39.076Z,98576.34
2022-12-25T16:58:07.934Z,98588.34
2022-12-25T17:00:36.397Z,98580.06
2022-12-25T17:03:04.931Z,98574.25
2022-12-25T17:05:34.562Z,98566.81
2022-12-25T17:08:04.338Z,98563.09
2022-12-25T17:10:32.581Z,98566.00
2022-12-25T17:13:00.827Z,98571.75
2022-12-25T17:15:29.328Z,98583.59
2022-12-25T17:17:57.624Z,98588.72
2022-12-25T17:20:25.759Z,98596.00
2022-12-25T17:22:54.019Z,98620.59
2022-12-25T17:25:23.860Z,98620.47
2022-12-25T17:27:52.015Z,98611.16
2022-12-25T17:30:20.197Z,98641.75
2022-12-25T17:32:48.840Z,98650.44
2022-12-25T17:35:17.976Z,98652.44
2022-12-25T17:37:46.019Z,98659.16
2022-12-25T17:40:14.481Z,98672.69
2022-12-25T17:42:44.359Z,98672.03
2022-12-25T17:45:13.103Z,98683.56
2022-12-25T17:47:41.313Z,98701.84
2022-12-25T17:50:09.609Z,98719.22
2022-12-25T17:52:37.957Z,98724.97
2022-12-25T17:55:07.171Z,98736.84
2022-12-25T17:57:35.409Z,98741.25
2022-12-25T18:00:05.659Z,98736.25
2022-12-25T18:02:33.925Z,98743.72
2022-12-25T18:05:02.237Z,98737.84
2022-12-25T18:07:30.412Z,98755.72
2022-12-25T18:09:58.963Z,98767.19
2022-12-25T18:12:27.694Z,98784.00
2022-12-25T18:14:56.056Z,98792.78
2022-12-25T18:17:26.085Z,98800.28
2022-12-25T18:19:54.334Z,98816.19
2022-12-25T18:22:23.100Z,98821.81
2022-12-25T18:24:51.249Z,98830.94
2022-12-25T18:27:21.161Z,98833.47
2022-12-25T18:29:53.890Z,98848.59
2022-12-25T18:32:28.170Z,98860.97
